Time;durP1;ratioP1;P1;durP2;ratioP2;P2;SDS_P1;SDS_P2;PMS_P1;PMS_P2;Temp;Humidity;BMP_temperature;BMP_pressure;BME280_temperature;BME280_humidity;BME280_pressure;Samples;Min_cycle;Max_cycle;Signal;HPM_P1;HPM_P2
2021/12/28 00:01:09;;;;;;;61.40;18.40;;;-5.10;99.90;;;;;;5012652;28;20609;-71
2021/12/28 00:03:57;;;;;;;64.13;20.17;;;-5.10;99.90;;;;;;5016408;28;20720;-71
2021/12/28 00:06:45;;;;;;;58.13;16.93;;;-5.10;99.90;;;;;;5015269;28;21166;-71
2021/12/28 00:09:32;;;;;;;63.07;19.53;;;-5.00;99.90;;;;;;5012514;28;20654;-71
2021/12/28 00:12:20;;;;;;;63.83;19.37;;;-5.00;99.90;;;;;;5017081;28;20989;-70
2021/12/28 00:15:19;;;;;;;66.53;21.03;;;-5.00;99.90;;;;;;5014094;28;20613;-70
2021/12/28 00:18:08;;;;;;;53.20;17.50;;;-5.10;99.90;;;;;;5016166;28;20641;-71
2021/12/28 00:20:57;;;;;;;50.37;17.73;;;-5.00;99.90;;;;;;5016807;28;20644;-70
2021/12/28 00:23:44;;;;;;;62.30;19.33;;;-5.00;99.90;;;;;;5013498;28;20611;-70
2021/12/28 00:26:32;;;;;;;56.90;18.00;;;-5.10;99.90;;;;;;5015297;28;21285;-70
2021/12/28 00:29:19;;;;;;;60.70;19.93;;;-5.10;99.90;;;;;;5016362;28;20648;-71
2021/12/28 00:32:08;;;;;;;89.27;25.03;;;-5.00;99.90;;;;;;5020492;28;20609;-71
2021/12/28 00:34:56;;;;;;;67.33;23.77;;;-5.00;99.90;;;;;;5021479;28;20767;-70
2021/12/28 00:37:44;;;;;;;123.93;23.27;;;-5.00;99.90;;;;;;5014456;28;20671;-70
2021/12/28 00:40:32;;;;;;;59.37;19.10;;;-5.00;99.90;;;;;;5015726;28;21217;-70
2021/12/28 00:43:19;;;;;;;52.90;18.03;;;-4.90;99.90;;;;;;5011387;28;20619;-71
2021/12/28 00:46:07;;;;;;;67.10;20.63;;;-4.90;99.90;;;;;;5018139;28;20704;-71
2021/12/28 00:48:55;;;;;;;57.97;19.67;;;-4.90;99.90;;;;;;5022894;28;20980;-71
2021/12/28 00:51:44;;;;;;;67.67;20.27;;;-4.90;99.90;;;;;;5023891;28;20619;-71
2021/12/28 00:54:32;;;;;;;61.80;20.20;;;-4.90;99.90;;;;;;5022831;28;21073;-71
2021/12/28 00:57:20;;;;;;;66.93;21.40;;;-4.90;99.90;;;;;;5021977;28;20616;-71
2021/12/28 01:00:10;;;;;;;69.33;21.07;;;-4.90;99.90;;;;;;5024317;28;20981;-71
2021/12/28 01:02:58;;;;;;;59.60;19.90;;;-4.90;99.90;;;;;;5017522;28;20614;-71
2021/12/28 01:05:45;;;;;;;64.33;21.37;;;-4.90;99.90;;;;;;5022127;28;20968;-71
2021/12/28 01:08:34;;;;;;;62.30;18.77;;;-4.90;99.90;;;;;;5018772;28;20723;-71
2021/12/28 01:11:22;;;;;;;66.60;22.20;;;-4.90;99.90;;;;;;5020614;28;20636;-71
2021/12/28 01:14:09;;;;;;;56.50;18.53;;;-4.90;99.90;;;;;;5023397;28;20609;-70
2021/12/28 01:16:59;;;;;;;70.70;23.10;;;-4.80;99.90;;;;;;5022256;28;20660;-70
2021/12/28 01:19:46;;;;;;;69.13;21.30;;;-4.80;99.90;;;;;;5017673;28;20612;-70
2021/12/28 01:22:34;;;;;;;64.97;21.03;;;-4.80;99.90;;;;;;5016259;28;20612;-71
2021/12/28 01:25:23;;;;;;;67.27;21.13;;;-4.80;99.90;;;;;;5022754;28;20707;-71
2021/12/28 01:28:11;;;;;;;66.97;23.00;;;-4.80;99.90;;;;;;5024704;28;20649;-71
2021/12/28 01:30:58;;;;;;;70.63;22.73;;;-4.80;99.90;;;;;;5018725;28;21025;-71
2021/12/28 01:33:46;;;;;;;68.43;23.00;;;-4.90;99.90;;;;;;5021763;28;20611;-71
2021/12/28 01:36:34;;;;;;;54.77;18.03;;;-4.90;99.90;;;;;;5010757;28;20977;-71
2021/12/28 01:39:21;;;;;;;55.03;19.90;;;-4.90;99.90;;;;;;5022906;28;20623;-71
2021/12/28 01:42:10;;;;;;;65.97;22.73;;;-5.00;99.90;;;;;;5022081;28;20613;-71
2021/12/28 01:44:58;;;;;;;74.50;22.63;;;-4.90;99.90;;;;;;5019463;28;20594;-71
2021/12/28 01:47:45;;;;;;;68.00;21.63;;;-5.00;99.90;;;;;;5016963;28;20997;-71
2021/12/28 01:50:33;;;;;;;59.60;20.97;;;-5.00;99.90;;;;;;5018273;28;20612;-71
2021/12/28 01:53:20;;;;;;;66.30;21.70;;;-5.00;99.90;;;;;;5021135;28;20616;-71
2021/12/28 01:56:12;;;;;;;61.67;21.10;;;-5.00;99.90;;;;;;5016691;28;20644;-71
2021/12/28 01:59:01;;;;;;;68.83;21.67;;;-5.00;99.90;;;;;;5017333;28;20700;-71
2021/12/28 02:01:48;;;;;;;72.07;22.33;;;-5.00;99.90;;;;;;5015936;28;20714;-71
2021/12/28 02:04:36;;;;;;;68.30;21.23;;;-5.00;99.90;;;;;;5020270;28;20609;-71
2021/12/28 02:07:23;;;;;;;66.70;22.13;;;-5.10;99.90;;;;;;5018067;28;20646;-71
2021/12/28 02:10:11;;;;;;;66.73;22.27;;;-5.10;99.90;;;;;;5015528;28;20620;-71
2021/12/28 02:12:58;;;;;;;60.60;21.43;;;-5.10;99.90;;;;;;5015121;28;20617;-71
2021/12/28 02:15:48;;;;;;;63.93;22.13;;;-5.10;99.90;;;;;;5014604;28;20672;-71
2021/12/28 02:18:35;;;;;;;63.97;22.07;;;-5.10;99.90;;;;;;5017564;28;20624;-71
2021/12/28 02:21:25;;;;;;;63.30;21.37;;;-5.10;99.90;;;;;;5015835;28;20617;-71
2021/12/28 02:24:13;;;;;;;63.70;21.50;;;-5.10;99.90;;;;;;5017994;28;20612;-71
2021/12/28 02:27:00;;;;;;;66.20;19.47;;;-5.00;99.90;;;;;;5017927;28;20613;-71
2021/12/28 02:29:48;;;;;;;70.70;21.63;;;-5.00;99.90;;;;;;5016192;28;20728;-71
2021/12/28 02:32:35;;;;;;;66.73;21.87;;;-4.90;99.90;;;;;;5014496;28;20631;-71
2021/12/28 02:35:25;;;;;;;56.27;20.90;;;-4.90;99.90;;;;;;5020792;28;20698;-71
2021/12/28 02:38:14;;;;;;;48.93;15.13;;;-4.90;99.90;;;;;;5021626;28;20770;-71
2021/12/28 02:41:01;;;;;;;52.10;17.53;;;-4.90;99.90;;;;;;5016371;28;20680;-71
2021/12/28 02:43:49;;;;;;;62.10;20.60;;;-4.80;99.90;;;;;;5021317;28;20952;-71
2021/12/28 02:46:37;;;;;;;58.63;20.47;;;-4.80;99.90;;;;;;5021363;28;20698;-70
2021/12/28 02:49:24;;;;;;;67.73;22.40;;;-4.90;99.90;;;;;;5023975;28;21009;-71
2021/12/28 02:52:12;;;;;;;66.37;20.97;;;-4.80;99.90;;;;;;5017117;28;20616;-71
2021/12/28 02:55:01;;;;;;;59.87;19.33;;;-4.80;99.90;;;;;;5019389;28;20613;-71
2021/12/28 02:57:49;;;;;;;59.63;18.77;;;-4.90;99.90;;;;;;5018094;28;20608;-71
2021/12/28 03:00:37;;;;;;;64.00;20.70;;;-4.80;99.90;;;;;;5017310;28;20612;-71
2021/12/28 03:03:26;;;;;;;70.17;23.97;;;-4.70;99.90;;;;;;5018416;28;20970;-71
2021/12/28 03:06:15;;;;;;;70.07;23.33;;;-4.70;99.90;;;;;;5021327;28;20624;-71
2021/12/28 03:09:04;;;;;;;71.13;22.30;;;-4.80;99.90;;;;;;5014454;28;20641;-71
2021/12/28 03:11:53;;;;;;;54.73;18.50;;;-4.80;99.90;;;;;;5016909;28;20629;-71
2021/12/28 03:14:40;;;;;;;59.60;20.23;;;-4.80;99.90;;;;;;5016964;28;20620;-71
2021/12/28 03:17:28;;;;;;;61.20;21.60;;;-4.90;99.90;;;;;;5016286;28;20670;-71
2021/12/28 03:20:16;;;;;;;59.00;20.73;;;-4.80;99.90;;;;;;5020733;28;20601;-71
2021/12/28 03:23:03;;;;;;;66.60;20.57;;;-4.80;99.90;;;;;;5019584;28;20962;-71
2021/12/28 03:25:51;;;;;;;59.57;19.87;;;-4.80;99.90;;;;;;5016045;28;20664;-71
2021/12/28 03:28:42;;;;;;;62.33;21.37;;;-4.80;99.90;;;;;;5018948;28;20644;-71
2021/12/28 03:31:29;;;;;;;62.40;21.47;;;-4.80;99.90;;;;;;5009675;28;20684;-71
2021/12/28 03:34:17;;;;;;;63.67;22.57;;;-4.80;99.90;;;;;;5017769;28;20616;-71
2021/12/28 03:37:05;;;;;;;53.63;19.63;;;-4.90;99.90;;;;;;5018175;28;21136;-71
2021/12/28 03:39:52;;;;;;;63.10;20.43;;;-4.80;99.90;;;;;;5016827;28;20606;-71
2021/12/28 03:42:40;;;;;;;57.60;19.77;;;-4.80;99.90;;;;;;5015250;28;20615;-71
2021/12/28 03:45:29;;;;;;;46.93;14.97;;;-4.80;99.90;;;;;;5011764;28;20612;-71
2021/12/28 03:48:17;;;;;;;58.30;19.63;;;-4.80;99.90;;;;;;5019193;28;20787;-71
2021/12/28 03:51:06;;;;;;;44.93;17.47;;;-4.80;99.90;;;;;;5016701;28;20598;-71
2021/12/28 03:53:54;;;;;;;54.33;18.17;;;-4.90;99.90;;;;;;5017113;28;20618;-71
2021/12/28 03:56:41;;;;;;;57.00;18.83;;;-4.80;99.90;;;;;;5017264;28;20620;-71
2021/12/28 03:59:29;;;;;;;49.13;17.23;;;-4.80;99.90;;;;;;5008522;28;21245;-71
2021/12/28 04:02:18;;;;;;;51.73;18.47;;;-4.80;99.90;;;;;;5019133;28;21194;-71
2021/12/28 04:05:06;;;;;;;50.30;17.87;;;-4.90;99.90;;;;;;5018423;28;20594;-71
2021/12/28 04:07:54;;;;;;;48.63;17.53;;;-4.90;99.90;;;;;;5012067;28;20616;-71
2021/12/28 04:10:52;;;;;;;52.40;18.80;;;-4.90;99.90;;;;;;5017220;28;20656;-71
2021/12/28 04:13:39;;;;;;;49.30;17.13;;;-4.90;99.90;;;;;;5016927;28;20608;-71
2021/12/28 04:16:27;;;;;;;53.47;18.47;;;-5.00;99.90;;;;;;5019811;28;21128;-71
2021/12/28 04:19:16;;;;;;;46.83;16.97;;;-4.90;99.90;;;;;;5022260;28;20695;-71
2021/12/28 04:22:03;;;;;;;67.97;21.97;;;-5.00;99.90;;;;;;5019886;28;20696;-71
2021/12/28 04:24:51;;;;;;;55.20;19.13;;;-4.90;99.90;;;;;;5015275;28;21095;-71
2021/12/28 04:27:39;;;;;;;52.57;17.77;;;-4.90;99.90;;;;;;5018253;28;20698;-71
2021/12/28 04:30:26;;;;;;;42.70;17.07;;;-4.90;99.90;;;;;;5014613;28;20718;-71
2021/12/28 04:33:14;;;;;;;56.03;18.20;;;-4.90;99.90;;;;;;5018277;28;20612;-71
2021/12/28 04:36:03;;;;;;;37.77;14.53;;;-4.90;99.90;;;;;;5019801;28;20640;-71
2021/12/28 04:38:50;;;;;;;53.60;17.67;;;-4.90;99.90;;;;;;5021101;28;20605;-71
2021/12/28 04:41:38;;;;;;;54.47;19.67;;;-4.90;99.90;;;;;;5015410;28;20621;-71
2021/12/28 04:44:25;;;;;;;59.03;18.10;;;-4.90;99.90;;;;;;5019166;28;20607;-72
2021/12/28 04:47:13;;;;;;;54.43;17.77;;;-4.90;99.90;;;;;;5010043;28;20616;-71
2021/12/28 04:50:01;;;;;;;61.80;16.77;;;-4.90;99.90;;;;;;5008688;28;20645;-71
2021/12/28 04:52:50;;;;;;;54.87;16.50;;;-5.00;99.90;;;;;;5018243;28;20690;-70
2021/12/28 04:55:38;;;;;;;44.73;16.47;;;-4.90;99.90;;;;;;5019030;28;21166;-71
2021/12/28 04:58:25;;;;;;;55.10;19.77;;;-4.90;99.90;;;;;;5021322;28;21205;-71
2021/12/28 05:01:13;;;;;;;48.63;17.40;;;-4.90;99.90;;;;;;5025438;28;21162;-71
2021/12/28 05:04:00;;;;;;;55.20;19.83;;;-5.00;99.90;;;;;;5022724;28;20623;-71
2021/12/28 05:06:48;;;;;;;54.83;19.60;;;-5.00;99.90;;;;;;5021147;28;21099;-71
2021/12/28 05:09:37;;;;;;;48.53;16.10;;;-5.00;99.90;;;;;;5018776;28;20644;-71
2021/12/28 05:12:24;;;;;;;41.30;16.20;;;-5.10;99.90;;;;;;5019816;28;20707;-71
2021/12/28 05:15:12;;;;;;;45.23;17.67;;;-5.10;99.90;;;;;;5022760;28;20662;-71
2021/12/28 05:17:59;;;;;;;42.60;14.50;;;-5.10;99.90;;;;;;5022899;28;21186;-71
2021/12/28 05:20:47;;;;;;;57.17;20.00;;;-5.10;99.90;;;;;;5014218;28;21166;-71
2021/12/28 05:23:34;;;;;;;55.77;18.67;;;-5.10;99.90;;;;;;5025169;28;20604;-71
2021/12/28 05:26:23;;;;;;;48.10;16.90;;;-5.10;99.90;;;;;;5021040;28;20655;-71
2021/12/28 05:29:11;;;;;;;46.37;17.13;;;-5.10;99.90;;;;;;5022431;28;20699;-71
2021/12/28 05:31:58;;;;;;;41.13;14.77;;;-5.10;99.90;;;;;;4995462;28;20764;-71
2021/12/28 05:34:47;;;;;;;53.50;18.43;;;-5.10;99.90;;;;;;5000364;28;20625;-70
2021/12/28 05:37:35;;;;;;;47.67;17.10;;;-5.10;99.90;;;;;;5002124;28;21179;-71
2021/12/28 05:40:22;;;;;;;66.23;21.20;;;-5.10;99.90;;;;;;4997468;28;20987;-71
2021/12/28 05:43:11;;;;;;;66.53;20.47;;;-5.10;99.90;;;;;;5003210;28;20617;-71
2021/12/28 05:45:59;;;;;;;52.80;17.10;;;-5.10;99.90;;;;;;4999281;28;20945;-71
2021/12/28 05:48:47;;;;;;;46.97;17.30;;;-5.00;99.90;;;;;;4997237;28;20637;-71
2021/12/28 05:51:34;;;;;;;53.63;19.03;;;-5.00;99.90;;;;;;4998970;28;20688;-71
2021/12/28 05:54:22;;;;;;;52.60;19.40;;;-4.90;99.90;;;;;;5004951;28;20617;-71
2021/12/28 05:57:10;;;;;;;50.60;18.53;;;-4.90;99.90;;;;;;5000100;28;20602;-71
2021/12/28 05:59:59;;;;;;;51.47;18.43;;;-4.90;99.90;;;;;;5001479;28;20607;-71
2021/12/28 06:02:46;;;;;;;43.37;16.13;;;-4.90;99.90;;;;;;4995637;28;21183;-71
2021/12/28 06:05:34;;;;;;;51.80;17.43;;;-4.90;99.90;;;;;;5001226;28;20616;-71
2021/12/28 06:08:25;;;;;;;55.23;18.50;;;-4.90;99.90;;;;;;5003217;28;20636;-71
2021/12/28 06:11:14;;;;;;;51.07;17.67;;;-4.90;99.90;;;;;;5002637;28;20649;-71
2021/12/28 06:14:01;;;;;;;49.37;16.47;;;-4.90;99.90;;;;;;5001845;28;20614;-71
2021/12/28 06:16:51;;;;;;;52.23;18.63;;;-4.90;99.90;;;;;;4999935;28;20609;-71
2021/12/28 06:19:38;;;;;;;51.23;19.00;;;-4.90;99.90;;;;;;4993012;28;21231;-71
2021/12/28 06:22:26;;;;;;;51.07;18.53;;;-4.90;99.90;;;;;;5000899;28;20647;-71
2021/12/28 06:25:13;;;;;;;46.73;17.10;;;-4.90;99.90;;;;;;5001366;28;20748;-71
2021/12/28 06:28:01;;;;;;;43.83;15.60;;;-5.00;99.90;;;;;;4999108;28;20599;-71
2021/12/28 06:30:48;;;;;;;46.77;16.13;;;-5.00;99.90;;;;;;4998761;28;20649;-71
2021/12/28 06:33:37;;;;;;;52.63;17.60;;;-5.00;99.90;;;;;;4997976;28;20614;-71
2021/12/28 06:36:25;;;;;;;46.97;17.20;;;-5.00;99.90;;;;;;4997085;28;20621;-71
2021/12/28 06:39:12;;;;;;;51.53;18.30;;;-5.00;99.90;;;;;;4991308;28;20634;-70
2021/12/28 06:42:00;;;;;;;59.17;20.90;;;-5.00;99.90;;;;;;4994974;28;20638;-72
2021/12/28 06:44:48;;;;;;;52.63;19.53;;;-5.00;99.90;;;;;;5000276;28;20695;-71
2021/12/28 06:47:36;;;;;;;46.27;17.37;;;-5.00;99.90;;;;;;4998918;28;20621;-71
2021/12/28 06:50:25;;;;;;;49.40;18.90;;;-4.90;99.90;;;;;;4996895;28;20661;-73
2021/12/28 06:53:13;;;;;;;59.77;20.93;;;-4.90;99.90;;;;;;5001124;28;20597;-71
2021/12/28 06:56:00;;;;;;;59.87;19.10;;;-4.90;99.90;;;;;;4990357;28;20700;-71
2021/12/28 06:58:48;;;;;;;45.23;16.77;;;-5.00;99.90;;;;;;4997355;28;21188;-72
2021/12/28 07:01:35;;;;;;;39.60;15.23;;;-5.00;99.90;;;;;;4997156;28;20985;-71
2021/12/28 07:04:23;;;;;;;38.23;14.37;;;-5.00;99.90;;;;;;4992885;28;21254;-72
2021/12/28 07:07:13;;;;;;;43.30;15.20;;;-5.00;99.90;;;;;;4998678;28;20946;-71
2021/12/28 07:10:01;;;;;;;42.63;15.33;;;-5.00;99.90;;;;;;4999079;28;20674;-71
2021/12/28 07:12:50;;;;;;;42.00;14.93;;;-5.00;99.90;;;;;;4992182;28;21171;-72
2021/12/28 07:15:38;;;;;;;46.53;19.10;;;-5.00;99.90;;;;;;4987927;28;21266;-71
2021/12/28 07:18:25;;;;;;;43.00;16.90;;;-4.90;99.90;;;;;;4997596;28;20633;-71
2021/12/28 07:21:13;;;;;;;38.20;14.97;;;-4.90;99.90;;;;;;4998389;28;20612;-71
2021/12/28 07:24:02;;;;;;;47.23;17.60;;;-4.90;99.90;;;;;;4998274;28;20665;-71
2021/12/28 07:26:49;;;;;;;39.40;16.33;;;-4.80;99.90;;;;;;4996213;28;20984;-71
2021/12/28 07:29:37;;;;;;;49.73;17.17;;;-4.80;99.90;;;;;;4997529;28;20601;-71
2021/12/28 07:32:24;;;;;;;42.10;16.70;;;-4.80;99.90;;;;;;5006706;28;20624;-71
2021/12/28 07:35:12;;;;;;;44.00;17.47;;;-4.70;99.90;;;;;;5023226;28;20610;-71
2021/12/28 07:38:00;;;;;;;52.00;18.17;;;-4.70;99.90;;;;;;5008861;28;20618;-71
2021/12/28 07:40:49;;;;;;;45.50;16.00;;;-4.70;99.90;;;;;;4999584;28;20634;-71
2021/12/28 07:43:48;;;;;;;39.40;14.27;;;-4.70;99.90;;;;;;5004645;28;21002;-71
2021/12/28 07:46:36;;;;;;;51.67;17.33;;;-4.70;99.90;;;;;;5006151;28;20629;-71
2021/12/28 07:49:24;;;;;;;48.83;17.93;;;-4.60;99.90;;;;;;5015704;28;20618;-71
2021/12/28 07:52:11;;;;;;;46.80;17.50;;;-4.60;99.90;;;;;;5020393;28;21140;-71
2021/12/28 07:54:59;;;;;;;47.53;16.67;;;-4.60;99.90;;;;;;5026304;28;20613;-71
2021/12/28 07:57:47;;;;;;;40.50;16.00;;;-4.60;99.90;;;;;;5026532;28;20602;-71
2021/12/28 08:00:35;;;;;;;41.10;16.27;;;-4.50;99.90;;;;;;5026908;28;20608;-71
2021/12/28 08:03:24;;;;;;;41.40;15.37;;;-4.50;99.90;;;;;;5018973;28;20612;-71
2021/12/28 08:06:12;;;;;;;46.20;16.27;;;-4.40;99.90;;;;;;5025971;28;21309;-71
2021/12/28 08:08:59;;;;;;;36.37;14.70;;;-4.40;99.90;;;;;;5025962;28;20662;-71
2021/12/28 08:11:47;;;;;;;43.93;15.60;;;-4.30;99.90;;;;;;5027553;28;21808;-71
2021/12/28 08:14:36;;;;;;;45.17;16.97;;;-4.40;99.90;;;;;;5016833;28;20712;-71
2021/12/28 08:17:23;;;;;;;38.83;16.47;;;-4.30;99.90;;;;;;5010742;28;21183;-71
2021/12/28 08:20:12;;;;;;;58.53;19.03;;;-4.30;99.90;;;;;;5010755;28;20952;-71
2021/12/28 08:23:00;;;;;;;54.97;19.77;;;-4.20;99.90;;;;;;5011927;28;20704;-70
2021/12/28 08:25:48;;;;;;;69.50;24.93;;;-4.20;99.90;;;;;;5014023;28;20628;-71
2021/12/28 08:28:35;;;;;;;53.47;21.23;;;-4.10;99.90;;;;;;5016979;28;20617;-71
2021/12/28 08:31:24;;;;;;;53.77;19.87;;;-4.10;99.90;;;;;;5015584;28;20648;-71
2021/12/28 08:34:12;;;;;;;38.00;14.37;;;-4.00;99.90;;;;;;5008844;28;20624;-71
2021/12/28 08:36:59;;;;;;;50.13;19.67;;;-3.90;99.90;;;;;;5018590;28;20601;-71
2021/12/28 08:39:47;;;;;;;49.13;18.60;;;-3.80;99.90;;;;;;5020915;28;21470;-71
2021/12/28 08:42:35;;;;;;;49.00;18.43;;;-3.70;99.90;;;;;;5011413;28;21052;-71
2021/12/28 08:45:22;;;;;;;48.20;19.13;;;-3.60;99.90;;;;;;5013089;28;20674;-71
2021/12/28 08:48:12;;;;;;;52.87;21.00;;;-3.50;99.90;;;;;;5010017;28;20619;-71
2021/12/28 08:50:59;;;;;;;49.93;18.87;;;-3.50;99.90;;;;;;5013048;28;21318;-71
2021/12/28 08:53:47;;;;;;;54.23;20.20;;;-3.40;99.90;;;;;;5012871;28;21189;-71
2021/12/28 08:56:34;;;;;;;43.10;16.83;;;-3.40;99.90;;;;;;5016039;28;20985;-71
2021/12/28 08:59:22;;;;;;;46.10;18.57;;;-3.40;99.90;;;;;;5010527;28;21169;-71
2021/12/28 09:02:09;;;;;;;47.20;16.47;;;-3.30;99.90;;;;;;5018827;28;21232;-71
2021/12/28 09:04:58;;;;;;;46.03;17.27;;;-3.40;99.90;;;;;;5013172;28;20608;-71
2021/12/28 09:07:46;;;;;;;50.70;17.27;;;-3.40;99.90;;;;;;5020811;28;20605;-71
2021/12/28 09:10:34;;;;;;;45.73;19.03;;;-3.40;99.90;;;;;;5013006;28;20226;-71
2021/12/28 09:13:21;;;;;;;33.63;13.13;;;-3.40;99.90;;;;;;5017551;28;21155;-71
2021/12/28 09:16:09;;;;;;;42.33;17.17;;;-3.40;99.90;;;;;;5008336;28;20609;-71
2021/12/28 09:18:57;;;;;;;43.03;16.63;;;-3.30;99.90;;;;;;5013373;28;20610;-72
2021/12/28 09:21:46;;;;;;;55.53;18.93;;;-3.40;99.90;;;;;;5016737;28;20634;-71
2021/12/28 09:24:33;;;;;;;51.80;20.13;;;-3.50;99.90;;;;;;5020985;28;20600;-71
2021/12/28 09:27:21;;;;;;;52.50;19.87;;;-3.40;99.90;;;;;;5011009;28;20704;-71
2021/12/28 09:30:09;;;;;;;63.67;21.90;;;-3.30;99.90;;;;;;5006756;28;20690;-71
2021/12/28 09:32:57;;;;;;;60.10;23.27;;;-3.30;99.90;;;;;;5015938;28;20632;-71
2021/12/28 09:35:44;;;;;;;49.93;19.80;;;-3.20;99.90;;;;;;5011048;28;20612;-70
2021/12/28 09:38:34;;;;;;;54.37;20.83;;;-3.00;99.90;;;;;;5009839;28;20648;-71
2021/12/28 09:41:21;;;;;;;50.93;20.40;;;-2.90;99.90;;;;;;5011402;28;20642;-71
2021/12/28 09:44:09;;;;;;;89.00;30.70;;;-2.80;99.90;;;;;;5006936;28;20608;-71
2021/12/28 09:46:56;;;;;;;60.43;23.50;;;-2.80;99.90;;;;;;5010845;28;20762;-71
2021/12/28 09:49:44;;;;;;;104.10;29.90;;;-2.70;99.90;;;;;;5012241;28;20610;-71
2021/12/28 09:52:32;;;;;;;70.70;26.57;;;-2.50;99.90;;;;;;5007254;28;20637;-70
2021/12/28 09:55:22;;;;;;;61.30;20.73;;;-2.40;99.90;;;;;;5022635;28;20198;-71
2021/12/28 09:58:09;;;;;;;56.57;22.70;;;-2.30;99.90;;;;;;5008448;28;20207;-71
2021/12/28 10:00:57;;;;;;;56.83;22.93;;;-2.30;99.90;;;;;;5011023;28;20201;-71
2021/12/28 10:03:45;;;;;;;51.73;19.43;;;-2.20;99.90;;;;;;5012539;28;20203;-70
2021/12/28 10:06:32;;;;;;;56.77;21.27;;;-2.30;99.90;;;;;;5009780;28;20219;-71
2021/12/28 10:09:21;;;;;;;71.47;24.87;;;-2.40;99.90;;;;;;5005351;28;20333;-71
2021/12/28 10:12:11;;;;;;;82.30;28.17;;;-2.30;99.90;;;;;;5009023;28;20230;-71
2021/12/28 10:15:01;;;;;;;76.27;28.17;;;-2.10;99.90;;;;;;5012601;28;20438;-71
2021/12/28 10:17:50;;;;;;;70.90;24.83;;;-2.00;99.90;;;;;;5019195;28;20669;-71
2021/12/28 10:20:39;;;;;;;62.13;22.80;;;-1.90;99.90;;;;;;5019327;28;20203;-71
2021/12/28 10:23:28;;;;;;;53.30;23.33;;;-1.80;99.90;;;;;;5016699;28;20202;-71
2021/12/28 10:26:16;;;;;;;52.50;22.07;;;-1.60;99.90;;;;;;5018654;28;20205;-71
2021/12/28 10:29:09;;;;;;;57.43;22.77;;;-1.60;99.90;;;;;;5022989;28;20291;-72
2021/12/28 10:32:19;;;;;;;52.47;20.57;;;-1.50;99.90;;;;;;5010431;28;20305;-70
2021/12/28 10:35:08;;;;;;;62.60;23.23;;;-1.50;99.90;;;;;;5003857;28;20276;-71
2021/12/28 10:37:57;;;;;;;61.47;23.07;;;-1.30;99.90;;;;;;5022640;28;20309;-71
2021/12/28 10:40:46;;;;;;;66.97;26.33;;;-1.10;99.90;;;;;;5013154;28;20206;-71
2021/12/28 10:43:35;;;;;;;42.17;18.97;;;-1.00;99.90;;;;;;5016920;28;20243;-71
2021/12/28 10:46:24;;;;;;;51.37;21.27;;;-0.80;99.90;;;;;;5022373;28;20198;-71
2021/12/28 10:49:12;;;;;;;83.30;32.07;;;-0.70;99.90;;;;;;5019336;28;20205;-71
2021/12/28 10:52:22;;;;;;;56.60;23.37;;;-0.50;99.90;;;;;;5009290;28;20313;-72
2021/12/28 10:55:20;;;;;;;65.57;25.47;;;-0.20;99.90;;;;;;4999158;28;20893;-72
2021/12/28 10:58:08;;;;;;;64.50;26.37;;;-0.10;99.90;;;;;;4998612;28;20564;-72
2021/12/28 11:00:55;;;;;;;61.03;22.97;;;0.10;99.90;;;;;;4990150;28;20322;-71
2021/12/28 11:03:45;;;;;;;64.77;25.27;;;0.20;99.90;;;;;;4991255;28;20207;-71
2021/12/28 11:06:34;;;;;;;58.17;23.87;;;0.00;99.90;;;;;;4991614;28;20199;-72
2021/12/28 11:09:22;;;;;;;50.00;20.90;;;-0.20;99.90;;;;;;5004143;28;20221;-74
2021/12/28 11:12:10;;;;;;;56.17;23.77;;;-0.20;99.90;;;;;;4989175;28;20230;-71
2021/12/28 11:15:01;;;;;;;58.33;24.27;;;-0.40;99.90;;;;;;4999850;28;20214;-72
2021/12/28 11:17:49;;;;;;;56.30;23.20;;;-0.40;99.90;;;;;;4996302;28;20750;-69
2021/12/28 11:20:38;;;;;;;61.10;24.43;;;-0.30;99.90;;;;;;4997215;28;20207;-72
2021/12/28 11:23:27;;;;;;;66.53;26.43;;;-0.30;99.90;;;;;;5006804;28;20204;-72
2021/12/28 11:26:17;;;;;;;59.23;26.00;;;0.20;99.90;;;;;;5014150;28;20195;-73
2021/12/28 11:29:07;;;;;;;60.77;25.67;;;0.60;99.90;;;;;;5018338;28;20282;-74
2021/12/28 11:31:57;;;;;;;56.30;24.30;;;0.90;99.90;;;;;;4989682;28;20222;-74
2021/12/28 11:34:45;;;;;;;59.40;25.60;;;1.30;99.90;;;;;;4998739;28;20199;-73
2021/12/28 11:37:34;;;;;;;57.07;25.10;;;1.60;99.90;;;;;;5003969;28;20207;-74
2021/12/28 11:40:22;;;;;;;56.07;24.23;;;2.40;99.90;;;;;;4992716;28;20604;-72
2021/12/28 11:43:09;;;;;;;55.47;26.17;;;3.00;99.90;;;;;;4994931;28;20203;-72
2021/12/28 11:45:57;;;;;;;54.20;26.33;;;3.60;99.90;;;;;;4996081;28;20203;-75
2021/12/28 11:48:45;;;;;;;67.47;27.87;;;3.90;99.90;;;;;;4998291;28;20255;-74
2021/12/28 11:51:33;;;;;;;60.97;28.07;;;4.60;99.90;;;;;;5006055;28;20586;-74
2021/12/28 11:54:24;;;;;;;55.53;27.00;;;5.00;69.00;;;;;;5004889;28;20217;-75
2021/12/28 11:57:13;;;;;;;54.20;25.63;;;4.90;12.80;;;;;;4997084;28;20214;-74
2021/12/28 12:00:02;;;;;;;61.07;27.97;;;5.10;19.70;;;;;;5000270;28;20299;-75
2021/12/28 12:02:52;;;;;;;62.77;29.27;;;4.90;17.00;;;;;;5004273;28;20696;-74
2021/12/28 12:05:44;;;;;;;59.77;28.03;;;4.80;8.90;;;;;;4999867;28;20212;-74
2021/12/28 12:08:35;;;;;;;60.53;28.00;;;4.40;20.70;;;;;;5000720;28;20571;-74
2021/12/28 12:11:24;;;;;;;59.13;28.60;;;4.10;21.10;;;;;;5006715;28;20313;-74
2021/12/28 12:14:11;;;;;;;62.03;28.83;;;3.70;31.60;;;;;;5003750;28;20671;-73
2021/12/28 12:17:37;;;;;;;66.87;30.93;;;3.40;34.00;;;;;;4997514;28;20195;-73
2021/12/28 12:20:30;;;;;;;68.33;29.00;;;3.30;99.90;;;;;;4998553;28;20544;-73
2021/12/28 12:23:23;;;;;;;64.47;25.77;;;2.90;99.90;;;;;;5007089;28;20221;-73
2021/12/28 12:26:11;;;;;;;72.73;30.40;;;2.30;99.90;;;;;;5006810;28;20245;-73
2021/12/28 12:29:01;;;;;;;64.83;27.83;;;2.20;99.90;;;;;;5012089;28;20213;-73
2021/12/28 12:31:49;;;;;;;65.73;28.90;;;2.40;99.90;;;;;;5031070;28;20308;-73
2021/12/28 12:34:37;;;;;;;63.03;28.63;;;2.40;99.90;;;;;;5018791;28;20211;-73
2021/12/28 12:37:25;;;;;;;61.30;26.50;;;2.70;99.90;;;;;;5032401;28;20198;-74
2021/12/28 12:40:12;;;;;;;58.27;26.07;;;3.30;99.90;;;;;;5032280;28;20194;-74
2021/12/28 12:43:12;;;;;;;60.57;25.73;;;3.80;99.90;;;;;;5019872;28;20194;-75
2021/12/28 12:46:05;;;;;;;53.93;24.07;;;4.60;48.10;;;;;;5030486;28;20198;-75
2021/12/28 12:49:04;;;;;;;56.83;26.70;;;5.30;1.00;;;;;;5031811;28;20221;-75
2021/12/28 12:51:59;;;;;;;56.43;25.63;;;5.10;1.00;;;;;;5032281;28;20225;-75
2021/12/28 12:54:48;;;;;;;60.30;26.63;;;5.20;1.00;;;;;;5028769;28;20321;-75
2021/12/28 12:57:36;;;;;;;58.23;27.30;;;5.20;1.00;;;;;;5030633;28;20202;-75
2021/12/28 13:00:24;;;;;;;65.80;28.40;;;5.10;1.00;;;;;;5015616;28;20203;-75
2021/12/28 13:03:13;;;;;;;69.40;31.37;;;4.90;1.00;;;;;;5021230;28;20674;-75
2021/12/28 13:06:01;;;;;;;75.00;32.00;;;4.50;1.00;;;;;;5031282;28;20268;-74
2021/12/28 13:08:57;;;;;;;69.60;30.50;;;3.70;1.00;;;;;;5030335;28;20196;-74
2021/12/28 13:11:45;;;;;;;74.33;32.93;;;2.90;9.20;;;;;;5016925;28;20585;-74
2021/12/28 13:14:33;;;;;;;72.73;29.93;;;2.30;75.00;;;;;;5022697;28;20249;-73
2021/12/28 13:17:22;;;;;;;76.80;29.73;;;1.90;99.90;;;;;;5018582;28;20214;-74
2021/12/28 13:20:14;;;;;;;66.60;26.90;;;1.40;99.90;;;;;;5019040;28;20202;-73
2021/12/28 13:23:07;;;;;;;61.87;26.77;;;0.70;99.90;;;;;;5018700;28;20576;-74
2021/12/28 13:25:55;;;;;;;73.43;27.87;;;0.20;99.90;;;;;;5009547;28;20648;-73
2021/12/28 13:28:42;;;;;;;71.80;29.03;;;-0.20;1.00;;;;;;5003193;28;20257;-73
2021/12/28 13:31:30;;;;;;;134.43;28.67;;;-0.60;1.00;;;;;;5002971;28;20234;-73
2021/12/28 13:34:18;;;;;;;74.67;26.67;;;-1.00;1.00;;;;;;5005447;28;20217;-73
2021/12/28 13:37:07;;;;;;;69.47;25.77;;;-1.40;99.90;;;;;;5002165;28;20214;-73
2021/12/28 13:40:02;;;;;;;69.47;26.57;;;-1.70;99.90;;;;;;5000713;28;20204;-72
2021/12/28 13:42:50;;;;;;;78.90;29.47;;;-2.00;99.90;;;;;;5003051;28;20195;-73
2021/12/28 13:45:41;;;;;;;85.53;32.20;;;-2.20;99.90;;;;;;4994036;28;20218;-73
2021/12/28 13:48:31;;;;;;;91.67;34.00;;;-2.40;99.90;;;;;;4993896;28;20211;-72
2021/12/28 13:51:21;;;;;;;79.47;30.03;;;-2.50;99.90;;;;;;5000613;28;20204;-72
2021/12/28 13:54:10;;;;;;;83.73;30.73;;;-2.80;99.90;;;;;;5007214;28;20206;-71
2021/12/28 13:56:58;;;;;;;72.03;28.43;;;-2.80;99.90;;;;;;5020670;28;20202;-71
2021/12/28 13:59:45;;;;;;;85.20;28.60;;;-2.80;99.90;;;;;;5024120;28;20194;-71
2021/12/28 14:02:33;;;;;;;89.07;31.50;;;-2.90;99.90;;;;;;5026204;28;20194;-71
2021/12/28 14:05:20;;;;;;;83.03;29.97;;;-2.90;99.90;;;;;;5021780;28;20275;-71
2021/12/28 14:08:08;;;;;;;72.97;26.07;;;-3.00;99.90;;;;;;5020558;28;20275;-70
2021/12/28 14:10:58;;;;;;;79.70;28.97;;;-2.90;99.90;;;;;;5007609;28;20569;-71
2021/12/28 14:14:01;;;;;;;83.40;31.30;;;-2.90;99.90;;;;;;5014990;28;20209;-71
2021/12/28 14:16:52;;;;;;;81.47;31.07;;;-2.70;99.90;;;;;;5004978;28;20206;-70